createdAt,value
2023-03-22T00:08:44.150Z,9.1
2023-03-22T00:24:04.000Z,8.9
2023-03-22T00:39:25.116Z,8.7
2023-03-22T00:54:46.071Z,8.7
2023-03-22T01:10:07.043Z,8.6
2023-03-22T01:25:28.008Z,8.7
2023-03-22T01:40:48.971Z,8.8
2023-03-22T01:56:09.000Z,8.6
2023-03-22T02:11:30.000Z,8.2
2023-03-22T02:26:51.000Z,8.1
2023-03-22T02:42:12.836Z,7.8
2023-03-22T02:57:33.797Z,7.6
2023-03-22T03:12:54.762Z,8
2023-03-22T03:28:15.741Z,8
2023-03-22T03:43:35.711Z,8
2023-03-22T03:58:56.000Z,8.1
2023-03-22T04:14:17.638Z,8.3
2023-03-22T04:29:38.622Z,8.2
2023-03-22T04:44:59.540Z,8.1
2023-03-22T05:00:20.000Z,8.2
2023-03-22T05:15:41.000Z,8
2023-03-22T05:31:02.000Z,8
2023-03-22T05:46:23.225Z,8.2
2023-03-22T06:01:44.166Z,8.1
2023-03-22T06:17:05.084Z,8.4
2023-03-22T06:32:26.000Z,8.7
2023-03-22T06:47:46.918Z,8.9
2023-03-22T07:03:06.880Z,9.2
2023-03-22T07:18:27.800Z,9.6
2023-03-22T07:33:48.000Z,9.9
2023-03-22T07:49:09.639Z,10.5
2023-03-22T08:04:30.000Z,11.6
2023-03-22T08:35:12.426Z,13
2023-03-22T08:50:33.359Z,13.5
2023-03-22T09:05:54.274Z,14.9
2023-03-22T09:21:15.197Z,15.4
2023-03-22T09:36:36.000Z,16.2
2023-03-22T09:51:57.033Z,16.2
2023-03-22T10:07:17.964Z,16.6
2023-03-22T10:22:37.897Z,17
2023-03-22T10:37:58.849Z,16.8
2023-03-22T10:53:19.759Z,17
2023-03-22T11:08:40.682Z,17.7
2023-03-22T11:24:01.630Z,16.8
2023-03-22T11:39:22.000Z,16.7
2023-03-22T11:40:43.615Z,16.4
2023-03-22T11:42:04.000Z,16.1
2023-03-22T11:43:25.729Z,16
2023-03-22T11:44:46.000Z,16
2023-03-22T11:46:07.865Z,16.1
2023-03-22T11:47:28.949Z,16.1
2023-03-22T11:48:50.009Z,16.2
2023-03-22T11:50:10.076Z,16.3
2023-03-22T11:51:31.157Z,16.3
2023-03-22T11:52:52.222Z,16.4
2023-03-22T11:54:13.308Z,16.5
2023-03-22T11:55:34.000Z,16.6
2023-03-22T11:56:55.426Z,16.6
2023-03-22T11:58:16.490Z,16.6
2023-03-22T11:59:37.537Z,16.7
2023-03-22T12:00:58.621Z,16.7
2023-03-22T12:02:19.695Z,16.7
2023-03-22T12:03:40.755Z,16.8
2023-03-22T12:05:01.842Z,16.9
2023-03-22T12:06:22.000Z,17.4
2023-03-22T12:07:42.988Z,17.6
2023-03-22T12:09:04.052Z,17.7
2023-03-22T12:10:25.125Z,17.9
2023-03-22T12:11:46.178Z,18
2023-03-22T12:13:07.252Z,17.9
2023-03-22T12:14:28.320Z,17.7
2023-03-22T12:15:49.396Z,17.6
2023-03-22T12:17:10.000Z,17.4
2023-03-22T12:18:31.499Z,17.2
2023-03-22T12:21:13.665Z,17.5
2023-03-22T12:22:34.000Z,17.7
2023-03-22T12:23:55.820Z,17.9
2023-03-22T12:25:15.907Z,18.3
2023-03-22T12:26:36.984Z,18.5
2023-03-22T12:27:58.033Z,18.7
2023-03-22T12:29:19.141Z,18.8
2023-03-22T12:30:40.205Z,18.8
2023-03-22T12:32:01.290Z,19
2023-03-22T12:33:22.000Z,18.7
2023-03-22T12:34:43.436Z,18.5
2023-03-22T12:36:04.000Z,18.4
2023-03-22T12:37:25.584Z,18.2
2023-03-22T12:38:46.650Z,18.1
2023-03-22T12:40:07.722Z,18
2023-03-22T12:41:28.780Z,18.2
2023-03-22T12:42:48.839Z,18.1
2023-03-22T12:44:09.954Z,18.3
2023-03-22T12:45:31.013Z,18
2023-03-22T12:46:52.000Z,17.9
2023-03-22T12:48:13.136Z,18.2
2023-03-22T12:49:34.212Z,18.3
2023-03-22T12:50:55.000Z,18.6
2023-03-22T12:52:16.366Z,18.8
2023-03-22T12:53:37.434Z,18.9
2023-03-22T12:54:58.000Z,18.8
2023-03-22T12:56:19.541Z,18.9
2023-03-22T12:57:40.000Z,19.5
2023-03-22T12:59:01.717Z,19.3
2023-03-22T13:00:21.817Z,19
2023-03-22T13:01:42.893Z,19.5
2023-03-22T13:03:03.000Z,19.6
2023-03-22T13:04:25.034Z,20.1
2023-03-22T13:05:46.000Z,20.4
2023-03-22T13:07:07.186Z,20.6
2023-03-22T13:08:28.272Z,20.4
2023-03-22T13:09:49.332Z,20.4
2023-03-22T13:11:10.401Z,20.1
2023-03-22T13:12:31.481Z,19.4
2023-03-22T13:13:52.555Z,19.7
2023-03-22T13:15:13.621Z,19.9
2023-03-22T13:16:34.000Z,20
2023-03-22T13:17:54.773Z,20.2
2023-03-22T13:19:15.865Z,20.3
2023-03-22T13:20:36.960Z,20.8
2023-03-22T13:21:58.000Z,20.3
2023-03-22T13:23:19.098Z,19.2
2023-03-22T13:24:40.000Z,19.2
2023-03-22T13:26:01.265Z,19.3
2023-03-22T13:27:22.000Z,18.8
2023-03-22T13:28:43.414Z,18.6
2023-03-22T13:30:04.495Z,18.5
2023-03-22T13:31:25.559Z,18.4
2023-03-22T13:32:46.621Z,18
2023-03-22T13:34:07.697Z,17.9
2023-03-22T13:35:27.780Z,17.7
2023-03-22T13:36:48.842Z,17.7
2023-03-22T13:38:09.919Z,17.6
2023-03-22T13:39:30.984Z,17.7
2023-03-22T13:40:52.000Z,17.7
2023-03-22T13:42:13.128Z,17.7
2023-03-22T13:43:34.000Z,17.7
2023-03-22T13:44:55.250Z,17.6
2023-03-22T13:46:16.000Z,17.4
2023-03-22T13:47:37.365Z,17.4
2023-03-22T13:48:58.000Z,17.2
2023-03-22T13:50:19.520Z,17.3
2023-03-22T13:51:40.557Z,17.3
2023-03-22T13:53:00.648Z,17.7
2023-03-22T13:54:21.000Z,18.4
2023-03-22T13:55:42.844Z,18.8
2023-03-22T13:57:03.868Z,19.2
2023-03-22T13:58:24.968Z,19.4
2023-03-22T13:59:46.000Z,19.5
2023-03-22T14:01:06.141Z,19.6
2023-03-22T14:02:27.000Z,19.5
2023-03-22T14:03:48.251Z,19.4
2023-03-22T14:05:09.000Z,19.1
2023-03-22T14:06:30.426Z,18.4
2023-03-22T14:07:51.487Z,17.8
2023-03-22T14:09:12.547Z,17.7
2023-03-22T14:10:33.000Z,17.7
2023-03-22T14:11:54.675Z,17.5
2023-03-22T14:13:15.000Z,17.4
2023-03-22T14:14:36.833Z,17.2
2023-03-22T14:15:57.869Z,17
2023-03-22T14:17:18.951Z,17
2023-03-22T14:18:39.045Z,16.8
2023-03-22T14:20:00.097Z,16.8
2023-03-22T14:21:21.168Z,16.7
2023-03-22T14:52:24.728Z,18.5
2023-03-22T14:53:44.823Z,18.2
2023-03-22T14:55:05.872Z,18.3
2023-03-22T14:56:26.937Z,18.3
2023-03-22T14:57:48.015Z,18.4
2023-03-22T14:59:09.089Z,18.6
2023-03-22T15:00:30.139Z,18.7
2023-03-22T15:01:51.213Z,18.6
2023-03-22T15:03:12.273Z,18.2
2023-03-22T15:04:33.341Z,17.9
2023-03-22T15:05:54.411Z,17.7
2023-03-22T15:07:15.000Z,17.5
2023-03-22T15:08:36.555Z,17.5
2023-03-22T15:09:57.611Z,17.4
2023-03-22T15:11:17.696Z,17.6
2023-03-22T15:12:38.772Z,17.7
2023-03-22T15:13:59.831Z,17.6
2023-03-22T15:15:20.000Z,17.8
2023-03-22T15:16:41.967Z,17.9
2023-03-22T15:18:03.000Z,18
2023-03-22T15:19:24.085Z,18
2023-03-22T15:20:45.153Z,17.9
2023-03-22T15:22:06.222Z,17.7
2023-03-22T15:23:27.296Z,17.3
2023-03-22T15:24:48.358Z,17.3
2023-03-22T15:26:09.429Z,17.1
2023-03-22T15:27:30.499Z,17.1
2023-03-22T15:28:50.579Z,17.2
2023-03-22T15:30:11.614Z,17.1
2023-03-22T15:31:32.680Z,17.2
2023-03-22T15:32:53.781Z,17.6
2023-03-22T15:34:14.847Z,17.8
2023-03-22T15:35:35.913Z,17.7
2023-03-22T15:36:56.979Z,17.7
2023-03-22T15:38:18.019Z,17.8
2023-03-22T15:39:39.124Z,17.7
2023-03-22T15:41:00.192Z,17.6
2023-03-22T15:42:21.253Z,17.3
2023-03-22T15:43:42.321Z,17.1
2023-03-22T15:45:03.366Z,17
2023-03-22T15:46:23.468Z,16.8
2023-03-22T15:47:44.535Z,16.7
2023-03-22T15:49:05.604Z,16.7
2023-03-22T15:50:26.635Z,16.6
2023-03-22T15:51:47.735Z,16.5
2023-03-22T15:53:08.793Z,16.5
2023-03-22T15:54:29.861Z,16.3
2023-03-22T15:55:50.940Z,16.3
2023-03-22T15:58:33.063Z,16.2
2023-03-22T15:59:54.138Z,16.2
2023-03-22T16:01:15.203Z,16.2
2023-03-22T16:02:36.266Z,16.1
2023-03-22T16:03:56.355Z,16.1
2023-03-22T16:05:17.435Z,16
2023-03-22T16:06:38.481Z,16
2023-03-22T16:07:59.560Z,16
2023-03-22T16:09:20.629Z,16
2023-03-22T16:10:41.694Z,16
2023-03-22T16:12:02.763Z,16
2023-03-22T16:13:23.835Z,15.9
2023-03-22T16:14:44.890Z,15.9
2023-03-22T16:16:05.921Z,15.9
2023-03-22T16:17:26.993Z,15.8
2023-03-22T16:18:48.090Z,15.8
2023-03-22T16:20:09.168Z,15.8
2023-03-22T16:21:29.251Z,15.8
2023-03-22T16:22:50.309Z,15.7
2023-03-22T16:24:11.376Z,15.7
2023-03-22T16:25:32.443Z,15.7
2023-03-22T16:26:53.511Z,15.6
2023-03-22T16:28:14.567Z,15.6
2023-03-22T16:29:35.644Z,15.7
2023-03-22T16:30:56.719Z,15.6
2023-03-22T16:32:17.788Z,15.6
2023-03-22T16:33:38.804Z,15.5
2023-03-22T16:34:59.901Z,15.5
2023-03-22T16:36:20.971Z,15.5
2023-03-22T16:37:42.046Z,15.4
2023-03-22T16:39:02.096Z,15.5
2023-03-22T16:40:23.200Z,15.3
2023-03-22T16:41:44.255Z,15.4
2023-03-22T16:43:05.325Z,15.3
2023-03-22T16:44:26.400Z,15.3
2023-03-22T16:45:47.451Z,15.3
2023-03-22T16:47:08.531Z,15.3
2023-03-22T16:48:29.597Z,15.2
2023-03-22T16:49:50.659Z,15.2
2023-03-22T16:51:11.690Z,15.3
2023-03-22T16:52:32.802Z,15.2
2023-03-22T16:53:53.865Z,15.1
2023-03-22T16:55:14.932Z,15.1
2023-03-22T16:56:35.016Z,15
2023-03-22T16:57:56.083Z,15
2023-03-22T16:59:17.156Z,14.9
2023-03-22T17:00:38.210Z,15
2023-03-22T17:01:59.279Z,14.9
2023-03-22T17:03:20.353Z,14.8
2023-03-22T17:04:41.424Z,14.9
2023-03-22T17:06:02.486Z,14.9
2023-03-22T17:07:23.548Z,14.8
2023-03-22T17:08:44.607Z,14.8
2023-03-22T17:10:05.679Z,14.8
2023-03-22T17:11:26.720Z,14.8
2023-03-22T17:12:47.809Z,14.9
2023-03-22T17:14:07.894Z,14.8
2023-03-22T17:15:28.923Z,14.7
2023-03-22T17:16:50.024Z,14.7
2023-03-22T17:18:11.103Z,14.6
2023-03-22T17:19:32.161Z,14.7
2023-03-22T17:20:53.224Z,14.7
2023-03-22T17:22:14.296Z,14.6
2023-03-22T17:23:35.327Z,14.6
2023-03-22T17:24:56.000Z,14.6
2023-03-22T17:26:17.482Z,14.4
2023-03-22T17:27:38.545Z,14.5
2023-03-22T17:28:59.627Z,14.3
2023-03-22T17:30:20.652Z,14.3
2023-03-22T17:31:40.732Z,14.3
2023-03-22T17:33:01.841Z,14.2
2023-03-22T17:34:22.909Z,14.1
2023-03-22T17:35:43.982Z,14.1
2023-03-22T17:37:05.043Z,14.1
2023-03-22T17:38:26.097Z,14.1
2023-03-22T17:39:47.171Z,14.1
2023-03-22T17:41:08.237Z,14.1
2023-03-22T17:42:29.297Z,14
2023-03-22T17:43:50.379Z,14
2023-03-22T17:45:11.447Z,13.9
2023-03-22T17:46:32.462Z,13.8
2023-03-22T17:47:53.618Z,13.9
2023-03-22T17:49:13.705Z,13.8
2023-03-22T17:50:34.760Z,13.8
2023-03-22T17:51:55.833Z,13.7
2023-03-22T17:53:16.942Z,13.6
2023-03-22T17:54:38.052Z,13.6
2023-03-22T17:55:59.161Z,13.8
2023-03-22T17:57:20.270Z,13.6
2023-03-22T17:58:41.393Z,13.7
2023-03-22T18:00:02.502Z,13.7
2023-03-22T18:01:23.616Z,13.6
2023-03-22T18:02:44.711Z,13.6
2023-03-22T18:04:05.827Z,13.6
2023-03-22T18:05:26.941Z,13.6
2023-03-22T18:06:47.052Z,13.6
2023-03-22T18:08:08.157Z,13.6
2023-03-22T18:09:29.276Z,13.5
2023-03-22T18:10:50.388Z,13.5
2023-03-22T18:12:11.494Z,13.5
2023-03-22T18:13:32.600Z,13.5
2023-03-22T18:14:53.716Z,13.6
2023-03-22T18:16:14.814Z,13.6
2023-03-22T18:17:35.933Z,13.5
2023-03-22T18:18:57.043Z,13.5
2023-03-22T18:20:18.149Z,13.4
2023-03-22T18:21:39.256Z,13.5
2023-03-22T18:23:00.356Z,13.5
2023-03-22T18:24:20.486Z,13.6
2023-03-22T18:25:41.587Z,13.6
2023-03-22T18:27:02.709Z,13.4
2023-03-22T18:28:23.774Z,13.3
2023-03-22T18:29:44.916Z,13.4
2023-03-22T18:31:06.045Z,13
2023-03-22T18:32:26.175Z,13.2
2023-03-22T18:33:47.276Z,13.2
2023-03-22T18:35:08.381Z,13.2
2023-03-22T18:36:29.496Z,13.2
2023-03-22T18:37:50.600Z,13.3
2023-03-22T18:39:11.712Z,13.4
2023-03-22T18:40:32.826Z,13.4
2023-03-22T18:41:53.889Z,13.3
2023-03-22T18:43:15.041Z,13.2
2023-03-22T18:44:36.118Z,13.3
2023-03-22T18:45:57.254Z,13.2
2023-03-22T18:47:18.372Z,13.3
2023-03-22T18:48:39.476Z,13.3
2023-03-22T18:49:59.609Z,13.3
2023-03-22T18:51:20.714Z,13.1
2023-03-22T18:52:41.819Z,13
2023-03-22T18:54:02.927Z,12.9
2023-03-22T18:55:24.054Z,12.8
2023-03-22T18:56:45.149Z,12.8
2023-03-22T18:58:06.262Z,12.8
2023-03-22T18:59:27.342Z,12.8
2023-03-22T19:00:48.472Z,12.8
2023-03-22T19:02:09.589Z,12.8
2023-03-22T19:03:30.701Z,12.7
2023-03-22T19:04:51.809Z,12.6
2023-03-22T19:07:34.034Z,12.7
2023-03-22T19:08:54.151Z,12.7
2023-03-22T19:10:15.257Z,12.7
2023-03-22T19:11:36.382Z,12.8
2023-03-22T19:12:57.483Z,12.7
2023-03-22T19:14:18.555Z,12.8
2023-03-22T19:15:39.709Z,12.8
2023-03-22T19:17:00.824Z,12.6
2023-03-22T19:18:21.923Z,12.4
2023-03-22T19:19:43.048Z,12.2
2023-03-22T19:21:04.154Z,12.1
2023-03-22T19:22:25.263Z,12.2
2023-03-22T19:23:46.357Z,12.3
2023-03-22T19:25:07.480Z,12.6
2023-03-22T19:26:27.562Z,12.9
2023-03-22T19:27:48.697Z,13
2023-03-22T19:29:09.815Z,13.1
2023-03-22T19:30:30.891Z,13.2
2023-03-22T19:31:51.989Z,13.2
2023-03-22T19:33:13.154Z,13.2
2023-03-22T19:34:34.260Z,13.1
2023-03-22T19:35:55.322Z,13
2023-03-22T19:37:16.477Z,13.2
2023-03-22T19:38:37.572Z,13.2
2023-03-22T19:39:58.682Z,13.2
2023-03-22T19:41:19.747Z,13.2
2023-03-22T19:42:40.860Z,13.2
2023-03-22T19:44:01.039Z,13.3
2023-03-22T19:45:22.151Z,13.2
2023-03-22T19:46:43.216Z,13.2
2023-03-22T19:48:04.370Z,13
2023-03-22T19:49:25.463Z,13
2023-03-22T19:50:46.551Z,13.2
2023-03-22T19:52:07.695Z,13.2
2023-03-22T19:53:28.792Z,13.2
2023-03-22T19:54:49.876Z,13.5
2023-03-22T19:56:11.008Z,13.8
2023-03-22T19:57:32.129Z,13.7
2023-03-22T19:58:53.229Z,13.6
2023-03-22T20:00:14.294Z,13.7
2023-03-22T20:01:34.415Z,13.6
2023-03-22T20:02:55.561Z,13.7
2023-03-22T20:04:16.685Z,13.8
2023-03-22T20:05:37.787Z,13.8
2023-03-22T20:06:58.908Z,13.8
2023-03-22T20:08:20.014Z,13.8
2023-03-22T20:09:41.077Z,13.8
2023-03-22T20:11:02.185Z,13.9
2023-03-22T20:12:23.324Z,13.9
2023-03-22T20:13:44.447Z,13.9
2023-03-22T20:15:05.541Z,13.8
2023-03-22T20:16:26.612Z,13.8
2023-03-22T20:17:47.765Z,13.9
2023-03-22T20:19:07.894Z,13.8
2023-03-22T20:20:28.000Z,13.7
2023-03-22T20:21:50.075Z,13.9
2023-03-22T20:23:11.175Z,13.9
2023-03-22T20:24:32.281Z,13.9
2023-03-22T20:25:53.433Z,13.8
2023-03-22T20:27:14.546Z,13.9
2023-03-22T20:28:35.660Z,13.8
2023-03-22T20:29:56.720Z,13.8
2023-03-22T20:31:17.873Z,13.8
2023-03-22T20:32:38.978Z,13.7
2023-03-22T20:34:00.080Z,13.7
2023-03-22T20:35:21.198Z,13.8
2023-03-22T20:36:41.266Z,13.7
2023-03-22T20:38:02.376Z,13.8
2023-03-22T20:39:23.495Z,13.7
2023-03-22T20:40:44.653Z,13.6
2023-03-22T20:42:05.711Z,13.7
2023-03-22T20:43:26.869Z,13.6
2023-03-22T20:44:47.965Z,13.6
2023-03-22T20:46:09.066Z,13.7
2023-03-22T20:47:30.174Z,13.8
2023-03-22T20:48:51.300Z,13.8
2023-03-22T20:50:12.361Z,13.8
2023-03-22T20:51:33.458Z,13.7
2023-03-22T20:52:54.617Z,13.7
2023-03-22T20:54:14.733Z,13.8
2023-03-22T20:55:35.858Z,13.8
2023-03-22T20:56:56.924Z,13.7
2023-03-22T20:58:18.020Z,13.8
2023-03-22T20:59:39.174Z,13.9
2023-03-22T21:01:00.295Z,13.9
2023-03-22T21:02:21.345Z,13.8
2023-03-22T21:03:42.455Z,13.7
2023-03-22T21:05:03.612Z,13.8
2023-03-22T21:06:24.716Z,13.6
2023-03-22T21:07:45.824Z,13.6
2023-03-22T21:09:06.939Z,13.6
2023-03-22T21:10:27.996Z,13.6
2023-03-22T21:11:48.180Z,13.5
2023-03-22T21:13:09.271Z,13.7
2023-03-22T21:14:30.393Z,13.5
2023-03-22T21:15:51.497Z,13.4
2023-03-22T21:17:12.552Z,13.5
2023-03-22T21:18:33.705Z,13.4
2023-03-22T21:19:54.814Z,13.4
2023-03-22T21:21:15.935Z,13.5
2023-03-22T21:22:37.030Z,13.5
2023-03-22T21:23:58.140Z,13.4
2023-03-22T21:25:19.253Z,13.5
2023-03-22T21:26:40.357Z,13.4
2023-03-22T21:28:01.460Z,13.5
2023-03-22T21:29:22.650Z,13.4
2023-03-22T21:30:43.765Z,13.5
2023-03-22T21:32:04.907Z,13.5
2023-03-22T21:33:26.019Z,13.6
2023-03-22T21:34:47.123Z,13.5
2023-03-22T21:36:08.245Z,13.5
2023-03-22T21:37:29.356Z,13.7
2023-03-22T21:38:50.446Z,13.6
2023-03-22T21:40:11.512Z,13.6
2023-03-22T21:41:32.669Z,13.6
2023-03-22T21:42:53.729Z,13.6
2023-03-22T21:44:14.836Z,13.5
2023-03-22T21:45:35.989Z,13.5
2023-03-22T21:46:56.118Z,13.5
2023-03-22T21:48:17.188Z,13.5
2023-03-22T21:49:38.000Z,13.5
2023-03-22T21:50:59.408Z,13.4
2023-03-22T21:52:20.544Z,13.4
2023-03-22T21:53:41.658Z,13.4
2023-03-22T21:55:02.769Z,13.4
2023-03-22T21:56:23.886Z,13.4
2023-03-22T21:57:44.980Z,13.4
2023-03-22T21:59:06.090Z,13.3
2023-03-22T22:00:27.213Z,13.4
2023-03-22T22:01:48.319Z,13.4
2023-03-22T22:03:09.417Z,13.4
2023-03-22T22:04:29.549Z,13.4
2023-03-22T22:05:50.615Z,13.5
2023-03-22T22:07:11.766Z,13.5
2023-03-22T22:08:32.828Z,13.4
2023-03-22T22:09:53.944Z,13.5
2023-03-22T22:11:15.083Z,13.3
2023-03-22T22:12:36.205Z,13.3
2023-03-22T22:13:57.315Z,13.3
2023-03-22T22:15:18.364Z,13.3
2023-03-22T22:16:39.512Z,13.2
2023-03-22T22:18:00.586Z,13.1
2023-03-22T22:19:21.690Z,13.1
2023-03-22T22:20:42.840Z,13
2023-03-22T22:22:02.966Z,13
2023-03-22T22:23:24.032Z,13.1
2023-03-22T22:24:45.178Z,13
2023-03-22T22:26:06.284Z,13
2023-03-22T22:27:27.411Z,12.9
2023-03-22T22:28:48.459Z,12.8
2023-03-22T22:30:09.618Z,12.8
2023-03-22T22:31:30.675Z,12.9
2023-03-22T22:32:51.824Z,12.9
2023-03-22T22:34:12.946Z,13
2023-03-22T22:35:34.012Z,12.9
2023-03-22T22:36:55.152Z,13
2023-03-22T22:38:16.263Z,13
2023-03-22T22:39:36.331Z,13.1
2023-03-22T22:40:57.000Z,13.1
2023-03-22T22:42:18.602Z,13
2023-03-22T22:43:39.717Z,13.1
2023-03-22T22:45:00.829Z,13
2023-03-22T22:46:21.938Z,13
2023-03-22T22:47:42.995Z,13.2
2023-03-22T22:49:04.152Z,13.1
2023-03-22T22:50:25.200Z,13
2023-03-22T22:51:46.308Z,13
2023-03-22T22:53:07.460Z,13
2023-03-22T22:54:28.582Z,13
2023-03-22T22:55:49.687Z,13
2023-03-22T22:57:09.000Z,12.9
2023-03-22T22:58:30.865Z,13
2023-03-22T22:59:52.024Z,13
2023-03-22T23:01:13.133Z,12.8
2023-03-22T23:02:34.000Z,12.8
2023-03-22T23:03:54.322Z,13
2023-03-22T23:05:15.428Z,12.9
2023-03-22T23:06:36.541Z,12.8
2023-03-22T23:07:57.690Z,12.7
2023-03-22T23:09:18.752Z,12.7
2023-03-22T23:10:39.902Z,12.6
2023-03-22T23:12:01.022Z,12.7
2023-03-22T23:13:22.000Z,12.6
2023-03-22T23:14:43.172Z,12.7
2023-03-22T23:16:04.000Z,12.7
2023-03-22T23:17:25.452Z,12.6
2023-03-22T23:18:46.500Z,12.7
2023-03-22T23:20:07.618Z,12.6
2023-03-22T23:21:27.000Z,12.6
2023-03-22T23:22:48.895Z,12.7
2023-03-22T23:24:09.989Z,12.6
2023-03-22T23:25:31.000Z,12.7
2023-03-22T23:40:52.000Z,12.5
2023-03-22T23:56:12.998Z,12.4
